Time;durP1;ratioP1;P1;durP2;ratioP2;P2;SDS_P1;SDS_P2;PMS_P1;PMS_P2;Temp;Humidity;BMP_temperature;BMP_pressure;BME280_temperature;BME280_humidity;BME280_pressure;Samples;Min_cycle;Max_cycle;Signal;HPM_P1;HPM_P2
2023/10/14 00:04:09;;;;;;;2.85;1.73;;;;;14.90;99768.00;;;;10420518;28;20210;-71
2023/10/14 00:09:11;;;;;;;0.88;0.43;;;;;14.60;99777.00;;;;10415811;28;20209;-70
2023/10/14 00:14:17;;;;;;;1.40;0.50;;;;;14.50;99804.00;;;;10410464;28;20222;-69
2023/10/14 00:19:22;;;;;;;2.55;0.50;;;;;14.40;99820.00;;;;10405379;28;20217;-70
2023/10/14 00:24:26;;;;;;;1.60;0.60;;;;;14.30;99824.00;;;;10409560;28;20209;-70
2023/10/14 00:29:29;;;;;;;0.73;0.52;;;;;14.30;99828.00;;;;10412668;28;20929;-69
2023/10/14 00:34:31;;;;;;;0.95;0.40;;;;;14.20;99836.00;;;;10425454;28;20249;-70
2023/10/14 00:39:33;;;;;;;0.52;0.50;;;;;14.20;99845.00;;;;10423026;28;20214;-70
2023/10/14 00:44:38;;;;;;;0.88;0.50;;;;;14.20;99873.00;;;;10426642;28;20202;-69
2023/10/14 00:49:42;;;;;;;1.50;0.50;;;;;14.00;99894.00;;;;10419366;28;20204;-70
2023/10/14 00:59:50;;;;;;;3.50;1.00;;;;;13.30;99937.00;;;;10423356;28;20676;-71
2023/10/14 01:04:54;;;;;;;10.93;1.70;;;;;13.20;99953.00;;;;10430858;28;20305;-73
2023/10/14 01:09:55;;;;;;;6.65;1.40;;;;;13.00;99952.00;;;;10429026;28;20222;-71
2023/10/14 01:15:10;;;;;;;7.78;1.33;;;;;12.90;99965.00;;;;10423527;28;20745;-72
2023/10/14 01:25:18;;;;;;;9.45;2.00;;;;;12.70;99997.00;;;;10423736;28;20231;-71
2023/10/14 01:30:25;;;;;;;10.93;2.10;;;;;12.70;99999.00;;;;10428409;28;20219;-71
2023/10/14 01:40:35;;;;;;;7.35;2.55;;;;;12.70;100031.00;;;;10421889;28;20217;-71
2023/10/14 01:45:40;;;;;;;21.53;3.67;;;;;12.70;100045.00;;;;10423949;28;20248;-71
2023/10/14 01:50:46;;;;;;;13.57;3.27;;;;;12.60;100068.00;;;;10421827;28;20240;-71
2023/10/14 01:55:50;;;;;;;11.40;2.70;;;;;12.60;100082.00;;;;10426764;28;20226;-71
2023/10/14 02:00:58;;;;;;;20.63;4.50;;;;;12.60;100106.00;;;;10415142;28;20913;-71
2023/10/14 02:06:11;;;;;;;9.50;3.03;;;;;12.60;100113.00;;;;10422512;28;20248;-71
2023/10/14 02:11:16;;;;;;;13.57;3.27;;;;;12.60;100130.00;;;;10424631;28;20325;-71
2023/10/14 02:16:24;;;;;;;18.20;4.40;;;;;12.60;100142.00;;;;10415609;28;20687;-71
2023/10/14 02:21:33;;;;;;;18.30;4.97;;;;;12.50;100151.00;;;;10412856;28;20207;-70
2023/10/14 02:26:34;;;;;;;16.73;3.60;;;;;12.40;100171.00;;;;10423077;28;20223;-72
2023/10/14 02:31:36;;;;;;;12.73;3.70;;;;;12.30;100184.00;;;;10427294;28;20215;-71
2023/10/14 02:36:48;;;;;;;17.40;3.70;;;;;12.10;100194.00;;;;10426771;28;20810;-72
2023/10/14 02:42:00;;;;;;;18.70;3.97;;;;;11.90;100206.00;;;;10422686;28;20198;-72
2023/10/14 02:47:05;;;;;;;14.63;3.77;;;;;11.80;100230.00;;;;10422885;28;20616;-71
2023/10/14 02:52:12;;;;;;;15.37;3.50;;;;;11.60;100219.00;;;;10421760;28;20229;-71
2023/10/14 03:02:27;;;;;;;15.00;4.57;;;;;11.40;100278.00;;;;10424024;28;20230;-71
2023/10/14 03:07:33;;;;;;;15.17;4.37;;;;;11.30;100285.00;;;;10413040;28;20209;-70
2023/10/14 03:12:40;;;;;;;15.93;3.47;;;;;11.10;100304.00;;;;10420266;28;20665;-71
2023/10/14 03:17:51;;;;;;;12.47;3.13;;;;;11.00;100317.00;;;;10407473;28;20213;-70
2023/10/14 03:22:58;;;;;;;11.83;3.13;;;;;10.90;100332.00;;;;10415377;28;20241;-72
2023/10/14 03:28:11;;;;;;;15.40;3.40;;;;;10.90;100351.00;;;;10426397;28;20210;-71
2023/10/14 03:33:19;;;;;;;15.00;3.07;;;;;10.80;100355.00;;;;10428317;28;20288;-71
2023/10/14 03:48:56;;;;;;;14.87;2.73;;;;;10.60;100401.00;;;;10425218;28;20742;-71
2023/10/14 03:54:07;;;;;;;20.30;2.93;;;;;10.50;100408.00;;;;10420285;28;20230;-71
2023/10/14 03:59:12;;;;;;;8.83;1.97;;;;;10.40;100414.00;;;;10424276;28;20845;-71
2023/10/14 04:04:32;;;;;;;12.30;3.00;;;;;10.30;100416.00;;;;10417339;28;20264;-70
2023/10/14 04:30:24;;;;;;;13.50;2.90;;;;;10.00;100470.00;;;;10410444;28;20210;-71
2023/10/14 04:35:26;;;;;;;9.43;2.43;;;;;9.90;100480.00;;;;10422470;28;20315;-71
2023/10/14 04:45:34;;;;;;;16.60;3.63;;;;;9.80;100492.00;;;;10425918;28;20210;-71
2023/10/14 04:50:38;;;;;;;13.50;3.17;;;;;9.80;100504.00;;;;10430459;28;20212;-71
2023/10/14 04:55:44;;;;;;;16.90;2.23;;;;;9.80;100509.00;;;;10405255;28;20222;-71
2023/10/14 05:00:46;;;;;;;13.70;2.90;;;;;9.80;100511.00;;;;10412619;28;20660;-71
2023/10/14 05:05:52;;;;;;;7.77;2.33;;;;;9.70;100520.00;;;;10417868;28;20233;-71
2023/10/14 05:10:54;;;;;;;15.17;2.90;;;;;9.70;100540.00;;;;10419695;28;20241;-71
2023/10/14 05:16:14;;;;;;;11.83;2.47;;;;;9.70;100538.00;;;;10448169;28;20232;-71
2023/10/14 05:21:35;;;;;;;10.80;2.63;;;;;9.70;100542.00;;;;10415930;28;20202;-71
2023/10/14 05:26:52;;;;;;;10.27;2.40;;;;;9.60;100535.00;;;;10416195;28;20209;-71
2023/10/14 05:32:18;;;;;;;12.77;2.90;;;;;9.60;100546.00;;;;10426098;28;20210;-71
2023/10/14 05:37:17;;;;;;;14.90;2.70;;;;;9.50;100558.00;;;;10425861;28;20234;-70
2023/10/14 05:42:22;;;;;;;12.53;2.23;;;;;9.50;100563.00;;;;10425966;28;21080;-71
2023/10/14 05:47:27;;;;;;;13.70;3.03;;;;;9.50;100573.00;;;;10420708;28;20316;-71
2023/10/14 05:52:30;;;;;;;13.70;2.67;;;;;9.40;100575.00;;;;10429107;28;20827;-71
2023/10/14 05:57:39;;;;;;;11.03;2.80;;;;;9.40;100589.00;;;;10429002;28;20203;-72
2023/10/14 06:02:43;;;;;;;11.90;2.40;;;;;9.40;100599.00;;;;10428731;28;20193;-72
2023/10/14 06:07:48;;;;;;;16.80;2.90;;;;;9.40;100606.00;;;;10428934;28;20668;-71
2023/10/14 06:12:50;;;;;;;10.43;3.10;;;;;9.40;100621.00;;;;10426133;28;20245;-71
2023/10/14 06:17:55;;;;;;;17.20;2.87;;;;;9.40;100636.00;;;;10421129;28;20297;-71
2023/10/14 06:22:59;;;;;;;12.60;3.20;;;;;9.40;100641.00;;;;10418163;28;20234;-71
2023/10/14 06:28:03;;;;;;;11.67;2.53;;;;;9.40;100654.00;;;;10423149;28;20787;-71
2023/10/14 06:33:06;;;;;;;15.03;2.87;;;;;9.50;100663.00;;;;10430711;28;21074;-71
2023/10/14 06:38:17;;;;;;;9.97;3.10;;;;;9.60;100676.00;;;;10422983;28;20210;-71
2023/10/14 06:43:22;;;;;;;16.23;2.80;;;;;9.60;100683.00;;;;10428283;28;20204;-71
2023/10/14 06:48:27;;;;;;;13.43;2.47;;;;;9.70;100698.00;;;;10430782;28;20642;-71
2023/10/14 06:53:29;;;;;;;12.07;3.13;;;;;9.70;100692.00;;;;10433818;28;20226;-71
2023/10/14 06:58:33;;;;;;;15.10;2.80;;;;;9.80;100710.00;;;;10423839;28;20289;-72
2023/10/14 07:03:35;;;;;;;10.37;3.13;;;;;9.90;100725.00;;;;10443484;28;20197;-71
2023/10/14 07:08:39;;;;;;;20.33;3.13;;;;;10.00;100721.00;;;;10427821;28;20210;-71
2023/10/14 07:13:42;;;;;;;19.60;3.67;;;;;10.10;100738.00;;;;10416404;28;20226;-71
2023/10/14 07:18:44;;;;;;;13.77;2.57;;;;;10.20;100745.00;;;;10427233;28;20194;-70
2023/10/14 07:23:45;;;;;;;15.37;3.30;;;;;10.30;100751.00;;;;10418769;28;20215;-71
2023/10/14 07:28:53;;;;;;;15.73;2.63;;;;;10.40;100758.00;;;;10430326;28;20218;-72
2023/10/14 07:34:02;;;;;;;22.00;3.23;;;;;10.50;100782.00;;;;10435191;28;20232;-72
2023/10/14 07:39:27;;;;;;;13.47;2.87;;;;;10.60;100786.00;;;;10425993;28;20693;-72
2023/10/14 07:44:26;;;;;;;14.57;3.00;;;;;10.80;100797.00;;;;10426675;28;20287;-71
2023/10/14 07:49:28;;;;;;;14.37;2.70;;;;;10.90;100803.00;;;;10414333;28;20997;-71
2023/10/14 07:54:30;;;;;;;10.03;2.70;;;;;11.10;100812.00;;;;10415650;28;20943;-71
2023/10/14 07:59:34;;;;;;;14.23;2.50;;;;;11.20;100811.00;;;;10420611;28;20263;-72
2023/10/14 08:04:36;;;;;;;13.13;2.60;;;;;11.10;100819.00;;;;10414016;28;20221;-72
2023/10/14 08:09:39;;;;;;;13.20;2.23;;;;;11.60;100846.00;;;;10416835;28;20221;-71
2023/10/14 08:14:41;;;;;;;11.43;2.67;;;;;12.10;100838.00;;;;10433524;28;21005;-72
2023/10/14 08:19:43;;;;;;;17.30;3.45;;;;;12.50;100849.00;;;;10414490;28;20211;-71
2023/10/14 08:24:45;;;;;;;8.35;2.97;;;;;12.90;100856.00;;;;10416532;28;20716;-72
2023/10/14 08:29:47;;;;;;;7.78;2.10;;;;;13.10;100858.00;;;;10414985;28;20218;-71
2023/10/14 08:34:49;;;;;;;9.15;2.60;;;;;13.30;100867.00;;;;10417009;28;20236;-71
2023/10/14 08:39:51;;;;;;;11.75;2.95;;;;;13.40;100869.00;;;;10411154;28;20234;-70
2023/10/14 08:44:58;;;;;;;10.27;2.28;;;;;13.60;100885.00;;;;10411066;28;20288;-70
2023/10/14 08:50:01;;;;;;;13.00;2.35;;;;;13.80;100899.00;;;;10409894;28;20325;-71
2023/10/14 08:55:06;;;;;;;11.05;2.67;;;;;13.90;100889.00;;;;10415303;28;20218;-71
2023/10/14 09:00:12;;;;;;;7.97;2.03;;;;;14.10;100898.00;;;;10421875;28;20638;-70
2023/10/14 09:05:16;;;;;;;10.65;2.55;;;;;14.10;100903.00;;;;10429355;28;20203;-70
2023/10/14 09:10:20;;;;;;;6.85;2.25;;;;;14.10;100914.00;;;;10421624;28;20295;-70
2023/10/14 09:15:22;;;;;;;13.45;2.40;;;;;14.30;100915.00;;;;10426049;28;20225;-70
2023/10/14 09:20:38;;;;;;;16.30;2.55;;;;;14.50;100914.00;;;;10422340;28;20288;-72
2023/10/14 09:25:52;;;;;;;14.93;2.75;;;;;14.40;100923.00;;;;10422008;28;20948;-71
2023/10/14 09:30:57;;;;;;;13.13;3.20;;;;;14.40;100927.00;;;;10422919;28;20214;-70
2023/10/14 09:36:03;;;;;;;13.82;2.55;;;;;14.50;100939.00;;;;10420738;28;20215;-71
2023/10/14 09:41:07;;;;;;;13.65;2.40;;;;;14.60;100927.00;;;;10425107;28;20305;-71
2023/10/14 09:46:17;;;;;;;13.93;4.03;;;;;14.60;100949.00;;;;10421853;28;20237;-71
2023/10/14 09:51:19;;;;;;;7.95;2.10;;;;;14.30;100959.00;;;;10419592;28;20210;-71
2023/10/14 09:56:22;;;;;;;10.43;2.47;;;;;14.70;100963.00;;;;10422024;28;20269;-71
2023/10/14 10:01:41;;;;;;;10.23;2.47;;;;;14.70;100964.00;;;;10429534;28;20357;-71
2023/10/14 10:07:04;;;;;;;17.23;3.08;;;;;14.70;100971.00;;;;10427728;28;20201;-70
2023/10/14 10:12:10;;;;;;;9.30;2.88;;;;;15.30;100964.00;;;;10417210;28;20198;-71
2023/10/14 10:17:14;;;;;;;8.88;2.58;;;;;15.40;100973.00;;;;10412170;28;20219;-71
2023/10/14 10:22:17;;;;;;;8.15;2.50;;;;;15.10;100960.00;;;;10413536;28;20210;-73
2023/10/14 10:27:20;;;;;;;19.25;3.47;;;;;15.20;100969.00;;;;10418800;28;20249;-72
2023/10/14 10:32:29;;;;;;;11.05;2.70;;;;;15.60;100971.00;;;;10419592;28;20286;-72
2023/10/14 10:37:33;;;;;;;10.23;3.20;;;;;16.40;100952.00;;;;10416627;28;21120;-70
2023/10/14 10:42:45;;;;;;;12.63;2.75;;;;;16.80;100967.00;;;;10423806;28;20193;-72
2023/10/14 10:47:54;;;;;;;11.65;2.35;;;;;16.50;100970.00;;;;10422783;28;20308;-71
2023/10/14 10:53:20;;;;;;;12.88;2.55;;;;;16.30;100974.00;;;;10416485;28;20237;-72
2023/10/14 10:58:23;;;;;;;8.25;2.20;;;;;16.80;100974.00;;;;10431882;28;20191;-71
2023/10/14 11:03:25;;;;;;;11.10;3.00;;;;;17.10;100965.00;;;;10427420;28;20199;-72
2023/10/14 11:08:27;;;;;;;15.48;2.70;;;;;17.10;100960.00;;;;10419002;28;20225;-72
2023/10/14 11:13:29;;;;;;;11.40;2.75;;;;;16.00;100969.00;;;;10417382;28;20246;-72
2023/10/14 11:18:31;;;;;;;9.13;2.67;;;;;15.50;100979.00;;;;10418391;28;20202;-71
2023/10/14 11:23:42;;;;;;;12.98;3.00;;;;;15.50;100988.00;;;;10416732;28;20219;-71
2023/10/14 11:28:45;;;;;;;12.82;3.00;;;;;15.70;101004.00;;;;10412643;28;20209;-72
2023/10/14 11:33:47;;;;;;;10.88;3.22;;;;;15.60;101005.00;;;;10414391;28;20238;-71
2023/10/14 11:38:49;;;;;;;17.30;3.15;;;;;15.40;101002.00;;;;10412751;28;20265;-71
2023/10/14 11:43:52;;;;;;;12.52;2.47;;;;;16.00;100997.00;;;;10419725;28;20202;-72
2023/10/14 11:48:54;;;;;;;12.27;2.95;;;;;16.20;100991.00;;;;10413138;28;20887;-72
2023/10/14 11:53:56;;;;;;;11.20;2.40;;;;;15.90;101004.00;;;;10414553;28;20223;-71
2023/10/14 11:59:00;;;;;;;13.90;3.13;;;;;16.30;101008.00;;;;10417096;28;20348;-72
2023/10/14 12:04:02;;;;;;;11.75;3.25;;;;;16.20;101005.00;;;;10401000;28;20205;-71
2023/10/14 12:09:10;;;;;;;12.43;3.25;;;;;16.20;101019.00;;;;10417906;28;20305;-71
2023/10/14 12:14:14;;;;;;;8.38;2.25;;;;;16.20;101018.00;;;;10412289;28;20209;-72
2023/10/14 12:19:18;;;;;;;9.45;2.30;;;;;16.10;101028.00;;;;10407933;28;20191;-71
2023/10/14 12:24:25;;;;;;;8.25;2.10;;;;;16.30;101015.00;;;;10413005;28;20907;-71
2023/10/14 12:29:27;;;;;;;8.95;1.77;;;;;16.60;101017.00;;;;10417753;28;20265;-70
2023/10/14 12:34:32;;;;;;;4.85;1.67;;;;;16.60;101000.00;;;;10408214;28;20306;-71
2023/10/14 12:39:43;;;;;;;6.03;2.22;;;;;17.50;101010.00;;;;10412904;28;20195;-71
2023/10/14 12:44:49;;;;;;;8.15;2.05;;;;;16.20;101022.00;;;;10414985;28;20206;-71
2023/10/14 12:49:51;;;;;;;13.25;2.40;;;;;15.50;101035.00;;;;10409349;28;20598;-71
2023/10/14 12:54:53;;;;;;;9.25;2.17;;;;;16.70;101042.00;;;;10409940;28;20246;-71
2023/10/14 12:59:55;;;;;;;9.52;2.10;;;;;15.90;101048.00;;;;10418845;28;20240;-70
2023/10/14 13:05:00;;;;;;;10.70;2.55;;;;;14.80;101067.00;;;;10416530;28;20321;-71
2023/10/14 13:10:05;;;;;;;9.20;2.58;;;;;14.30;101070.00;;;;10408375;28;20209;-72
2023/10/14 13:15:08;;;;;;;12.02;2.45;;;;;14.40;101077.00;;;;10413701;28;20210;-71
2023/10/14 13:20:10;;;;;;;6.47;1.20;;;;;14.50;101102.00;;;;10414177;28;20285;-71
2023/10/14 13:25:16;;;;;;;5.35;1.38;;;;;14.50;101085.00;;;;10408857;28;20214;-71
2023/10/14 13:30:24;;;;;;;5.40;1.95;;;;;14.70;101094.00;;;;10403220;28;20283;-71
2023/10/14 13:35:26;;;;;;;6.82;1.45;;;;;14.80;101089.00;;;;10408103;28;20235;-72
2023/10/14 13:40:30;;;;;;;8.88;2.28;;;;;14.70;101106.00;;;;10410975;28;20290;-72
2023/10/14 13:45:42;;;;;;;7.78;1.83;;;;;14.40;101112.00;;;;10409835;28;20199;-72
2023/10/14 13:50:45;;;;;;;6.55;1.95;;;;;14.10;101125.00;;;;10410771;28;20202;-72
2023/10/14 13:55:53;;;;;;;11.40;2.05;;;;;14.00;101126.00;;;;10409446;28;20210;-71
2023/10/14 14:00:56;;;;;;;7.78;1.77;;;;;13.80;101133.00;;;;10425140;28;20299;-71
2023/10/14 14:06:05;;;;;;;5.50;1.58;;;;;13.50;101152.00;;;;10418408;28;20290;-72
2023/10/14 14:11:07;;;;;;;4.40;1.30;;;;;13.20;101157.00;;;;10416796;28;20252;-71
2023/10/14 14:16:09;;;;;;;5.63;1.10;;;;;13.20;101158.00;;;;10422032;28;20221;-71
2023/10/14 14:21:12;;;;;;;2.75;1.00;;;;;13.20;101157.00;;;;10423599;28;20863;-71
2023/10/14 14:26:18;;;;;;;7.57;0.97;;;;;13.30;101156.00;;;;10427182;28;20199;-71
2023/10/14 14:31:21;;;;;;;3.88;1.15;;;;;13.30;101154.00;;;;10414824;28;20190;-71
2023/10/14 14:36:23;;;;;;;3.97;1.40;;;;;13.20;101159.00;;;;10420694;28;20289;-72
2023/10/14 14:41:25;;;;;;;4.50;1.63;;;;;13.20;101162.00;;;;10412499;28;20186;-71
2023/10/14 14:46:29;;;;;;;4.80;1.33;;;;;13.00;101165.00;;;;10420235;28;20252;-71
2023/10/14 14:51:31;;;;;;;7.80;1.70;;;;;12.90;101170.00;;;;10410534;28;20256;-71
2023/10/14 14:56:34;;;;;;;8.57;1.80;;;;;13.00;101176.00;;;;10413757;28;20241;-71
2023/10/14 15:01:40;;;;;;;7.43;1.87;;;;;13.00;101178.00;;;;10423690;28;20191;-71
2023/10/14 15:06:43;;;;;;;6.83;2.13;;;;;12.80;101177.00;;;;10412405;28;20194;-71
2023/10/14 15:11:46;;;;;;;5.07;1.42;;;;;12.90;101178.00;;;;10409037;28;20787;-71
2023/10/14 15:16:48;;;;;;;9.70;1.83;;;;;12.90;101188.00;;;;10407493;28;20206;-71
2023/10/14 15:21:50;;;;;;;7.57;1.87;;;;;12.80;101183.00;;;;10413441;28;20254;-71
2023/10/14 15:26:52;;;;;;;8.97;2.00;;;;;12.80;101191.00;;;;10414275;28;20230;-71
2023/10/14 15:31:54;;;;;;;9.73;1.67;;;;;12.90;101183.00;;;;10416760;28;20218;-70
2023/10/14 15:36:57;;;;;;;8.90;2.07;;;;;13.00;101179.00;;;;10414627;28;20219;-72
2023/10/14 15:42:00;;;;;;;5.57;1.52;;;;;12.90;101185.00;;;;10418807;28;20191;-72
2023/10/14 15:47:04;;;;;;;6.90;1.80;;;;;12.70;101194.00;;;;10419131;28;20193;-70
2023/10/14 15:52:07;;;;;;;7.90;2.50;;;;;12.30;101195.00;;;;10420811;28;20210;-70
2023/10/14 15:57:09;;;;;;;10.60;1.80;;;;;12.00;101202.00;;;;10412375;28;20232;-71
2023/10/14 16:02:11;;;;;;;5.87;1.70;;;;;11.80;101212.00;;;;10416032;28;20847;-71
2023/10/14 16:07:13;;;;;;;8.30;1.87;;;;;11.60;101216.00;;;;10412334;28;20671;-71
2023/10/14 16:12:16;;;;;;;9.90;1.87;;;;;11.50;101221.00;;;;10418086;28;20269;-71
2023/10/14 16:17:19;;;;;;;13.67;2.80;;;;;11.50;101221.00;;;;10414948;28;20711;-70
2023/10/14 16:22:21;;;;;;;7.27;2.57;;;;;11.40;101234.00;;;;10413470;28;20233;-71
2023/10/14 16:27:23;;;;;;;10.63;2.27;;;;;11.40;101249.00;;;;10413094;28;20237;-72
2023/10/14 16:32:25;;;;;;;12.30;1.93;;;;;11.20;101250.00;;;;10410447;28;20293;-73
2023/10/14 16:37:27;;;;;;;8.97;1.70;;;;;10.80;101268.00;;;;10406304;28;20222;-71
2023/10/14 16:42:29;;;;;;;11.63;1.80;;;;;10.30;101258.00;;;;10407234;28;20272;-71
2023/10/14 16:47:31;;;;;;;4.83;1.40;;;;;9.90;101245.00;;;;10419858;28;20229;-72
2023/10/14 16:52:35;;;;;;;5.07;1.40;;;;;9.50;101250.00;;;;10421894;28;20236;-72
2023/10/14 16:57:44;;;;;;;4.27;1.40;;;;;9.40;101254.00;;;;10418139;28;20580;-72
2023/10/14 17:02:52;;;;;;;5.67;1.60;;;;;9.30;101262.00;;;;10425189;28;20213;-71
2023/10/14 17:07:59;;;;;;;8.37;1.20;;;;;9.30;101268.00;;;;10430943;28;20732;-71
2023/10/14 17:13:05;;;;;;;11.33;2.30;;;;;9.40;101277.00;;;;10419299;28;20855;-72
2023/10/14 17:18:08;;;;;;;6.97;1.60;;;;;9.40;101282.00;;;;10428468;28;20240;-72
2023/10/14 17:23:12;;;;;;;9.43;1.93;;;;;9.40;101273.00;;;;10429225;28;20221;-72
2023/10/14 17:28:14;;;;;;;12.47;2.57;;;;;9.30;101292.00;;;;10428390;28;20202;-72
2023/10/14 17:33:16;;;;;;;9.20;3.20;;;;;9.20;101298.00;;;;10430485;28;20761;-72
2023/10/14 17:38:18;;;;;;;10.60;3.80;;;;;9.10;101292.00;;;;10428222;28;22119;-72
2023/10/14 17:43:20;;;;;;;9.03;1.77;;;;;9.10;101301.00;;;;10423841;28;20421;-72
2023/10/14 17:48:22;;;;;;;10.37;1.97;;;;;9.10;101290.00;;;;10427948;28;20230;-72
2023/10/14 17:53:25;;;;;;;7.17;2.20;;;;;9.00;101301.00;;;;10440060;28;20206;-72
2023/10/14 17:58:27;;;;;;;10.00;2.20;;;;;8.90;101312.00;;;;10401183;28;20227;-72
2023/10/14 18:03:31;;;;;;;5.23;1.90;;;;;8.90;101311.00;;;;10427193;28;20213;-71
2023/10/14 18:08:33;;;;;;;7.13;1.90;;;;;8.70;101323.00;;;;10431144;28;20566;-72
2023/10/14 18:13:35;;;;;;;3.93;1.90;;;;;8.60;101323.00;;;;10416935;28;20309;-71
2023/10/14 18:18:44;;;;;;;6.80;1.70;;;;;8.50;101325.00;;;;10431676;28;20301;-72
2023/10/14 18:23:49;;;;;;;9.07;1.70;;;;;8.40;101327.00;;;;10432171;28;20320;-71
2023/10/14 18:28:51;;;;;;;3.87;1.63;;;;;8.40;101321.00;;;;10425000;28;20561;-72
2023/10/14 18:33:54;;;;;;;5.00;1.70;;;;;8.40;101323.00;;;;10424723;28;20230;-72
2023/10/14 18:38:56;;;;;;;5.00;1.57;;;;;8.30;101320.00;;;;10430815;28;20202;-71
2023/10/14 18:43:58;;;;;;;5.53;2.13;;;;;8.20;101324.00;;;;10420952;28;20288;-71
2023/10/14 18:49:01;;;;;;;7.97;2.20;;;;;8.10;101326.00;;;;10422723;28;20266;-72
2023/10/14 18:54:03;;;;;;;6.23;1.60;;;;;8.00;101322.00;;;;10432870;28;20653;-71
2023/10/14 18:59:04;;;;;;;5.07;2.17;;;;;7.80;101328.00;;;;10435505;28;20263;-71
2023/10/14 19:04:06;;;;;;;6.13;2.17;;;;;7.80;101327.00;;;;10431918;28;20214;-71
2023/10/14 19:09:10;;;;;;;6.33;2.47;;;;;7.80;101335.00;;;;10425843;28;20210;-72
2023/10/14 19:14:18;;;;;;;7.93;3.60;;;;;7.80;101333.00;;;;10429106;28;20790;-72
2023/10/14 19:19:27;;;;;;;9.37;3.40;;;;;7.90;101340.00;;;;10425801;28;20226;-71
2023/10/14 19:24:30;;;;;;;8.23;2.73;;;;;7.90;101347.00;;;;10420868;28;20293;-72
2023/10/14 19:29:32;;;;;;;12.67;4.27;;;;;8.00;101355.00;;;;10424010;28;20261;-72
2023/10/14 19:34:35;;;;;;;9.57;3.73;;;;;8.10;101359.00;;;;10429016;28;20226;-71
2023/10/14 19:39:37;;;;;;;11.03;3.27;;;;;8.30;101373.00;;;;10424641;28;20199;-72
2023/10/14 19:44:39;;;;;;;8.27;3.60;;;;;8.30;101368.00;;;;10421337;28;20299;-71
2023/10/14 19:49:41;;;;;;;6.13;2.53;;;;;8.40;101371.00;;;;10419316;28;20214;-71
2023/10/14 19:54:53;;;;;;;7.57;3.07;;;;;8.50;101375.00;;;;10425247;28;20210;-71
2023/10/14 19:59:56;;;;;;;6.00;2.80;;;;;8.40;101371.00;;;;10424682;28;20244;-71
2023/10/14 20:04:57;;;;;;;7.30;4.10;;;;;8.30;101383.00;;;;10422142;28;20663;-71
2023/10/14 20:10:00;;;;;;;7.87;4.00;;;;;8.20;101383.00;;;;10427728;28;20221;-71
2023/10/14 20:15:06;;;;;;;6.07;3.03;;;;;8.20;101388.00;;;;10410501;28;20233;-72
2023/10/14 20:20:16;;;;;;;9.77;2.90;;;;;8.10;101389.00;;;;10414303;28;20202;-71
2023/10/14 20:25:20;;;;;;;10.70;3.33;;;;;8.10;101400.00;;;;10410001;28;20203;-71
2023/10/14 20:30:26;;;;;;;7.07;3.13;;;;;8.10;101403.00;;;;10411531;28;20260;-71
2023/10/14 20:35:31;;;;;;;9.70;3.60;;;;;8.20;101401.00;;;;10426090;28;20222;-71
2023/10/14 20:40:37;;;;;;;9.40;2.77;;;;;8.30;101405.00;;;;10426005;28;20205;-71
2023/10/14 20:45:40;;;;;;;8.67;2.97;;;;;8.30;101408.00;;;;10420515;28;20252;-71
2023/10/14 20:50:47;;;;;;;11.37;3.27;;;;;8.40;101404.00;;;;10414686;28;20848;-71
2023/10/14 20:55:50;;;;;;;13.67;3.20;;;;;8.40;101404.00;;;;10418129;28;20738;-71
2023/10/14 21:00:52;;;;;;;11.83;3.47;;;;;8.30;101403.00;;;;10439348;28;20209;-70
2023/10/14 21:05:56;;;;;;;8.27;3.60;;;;;8.20;101410.00;;;;10431043;28;20205;-72
2023/10/14 21:10:58;;;;;;;11.83;4.57;;;;;8.10;101401.00;;;;10425909;28;20199;-71
2023/10/14 21:16:02;;;;;;;7.87;4.03;;;;;8.10;101401.00;;;;10427593;28;20219;-71
2023/10/14 21:21:12;;;;;;;11.47;4.20;;;;;8.10;101400.00;;;;10420416;28;20234;-71
2023/10/14 21:26:15;;;;;;;10.77;4.57;;;;;8.10;101400.00;;;;10421058;28;20643;-71
2023/10/14 21:31:18;;;;;;;14.93;4.50;;;;;8.00;101392.00;;;;10424485;28;20253;-71
2023/10/14 21:36:20;;;;;;;9.97;3.67;;;;;7.90;101389.00;;;;10429870;28;20324;-72
2023/10/14 21:41:22;;;;;;;8.97;4.47;;;;;7.80;101391.00;;;;10433643;28;20225;-71
2023/10/14 21:46:26;;;;;;;9.40;3.70;;;;;7.70;101391.00;;;;10432343;28;20215;-71
2023/10/14 21:51:30;;;;;;;9.73;3.57;;;;;7.60;101387.00;;;;10431806;28;20214;-70
2023/10/14 21:56:32;;;;;;;8.70;3.40;;;;;7.60;101396.00;;;;10423022;28;20787;-71
2023/10/14 22:01:44;;;;;;;6.73;3.50;;;;;7.70;101394.00;;;;10432659;28;20199;-72
2023/10/14 22:06:47;;;;;;;10.03;3.23;;;;;7.70;101388.00;;;;10432766;28;20221;-71
2023/10/14 22:11:49;;;;;;;7.83;3.33;;;;;7.70;101394.00;;;;10412101;28;20298;-72
2023/10/14 22:16:55;;;;;;;12.67;3.60;;;;;7.60;101393.00;;;;10419365;28;20225;-72
2023/10/14 22:21:57;;;;;;;8.53;3.77;;;;;7.60;101389.00;;;;10416648;28;20265;-72
2023/10/14 22:27:04;;;;;;;7.03;3.80;;;;;7.50;101386.00;;;;10415274;28;20229;-72
2023/10/14 22:32:06;;;;;;;7.73;3.10;;;;;7.40;101387.00;;;;10426511;28;20206;-71
2023/10/14 22:37:08;;;;;;;10.60;2.93;;;;;7.40;101386.00;;;;10430690;28;20259;-70
2023/10/14 22:42:12;;;;;;;9.83;4.17;;;;;7.30;101383.00;;;;10420618;28;20294;-71
2023/10/14 22:47:14;;;;;;;6.27;3.20;;;;;7.30;101386.00;;;;10429389;28;20207;-71
2023/10/14 22:52:17;;;;;;;9.63;4.97;;;;;7.20;101394.00;;;;10421100;28;20290;-71
2023/10/14 22:57:19;;;;;;;11.53;3.60;;;;;7.20;101381.00;;;;10428514;28;20230;-72
2023/10/14 23:02:22;;;;;;;9.70;4.10;;;;;7.10;101385.00;;;;10426319;28;20207;-71
2023/10/14 23:07:24;;;;;;;8.50;3.83;;;;;7.10;101380.00;;;;10417491;28;20306;-71
2023/10/14 23:12:27;;;;;;;8.27;3.40;;;;;6.90;101376.00;;;;10426366;28;20206;-70
2023/10/14 23:17:29;;;;;;;8.43;3.10;;;;;6.90;101376.00;;;;10427703;28;20604;-70
2023/10/14 23:22:33;;;;;;;8.47;3.00;;;;;6.80;101384.00;;;;10425837;28;20236;-72
2023/10/14 23:27:37;;;;;;;12.63;3.80;;;;;6.80;101383.00;;;;10414287;28;20288;-71
2023/10/14 23:32:39;;;;;;;7.37;3.60;;;;;6.80;101400.00;;;;10418028;28;20207;-70
2023/10/14 23:37:42;;;;;;;6.53;3.20;;;;;6.80;101386.00;;;;10422136;28;20218;-71
2023/10/14 23:42:57;;;;;;;14.90;2.93;;;;;6.80;101386.00;;;;10426174;28;20233;-70
2023/10/14 23:48:01;;;;;;;5.77;2.53;;;;;6.70;101379.00;;;;10422971;28;20213;-71
2023/10/14 23:53:08;;;;;;;4.77;2.57;;;;;6.60;101380.00;;;;10424979;28;20289;-72
2023/10/14 23:58:10;;;;;;;5.73;2.53;;;;;6.60;101373.00;;;;10423940;28;20246;-72
